Pagina principală
METAR-TAF:

METAR-TAF

Aeroporturi :

Anchorage, Alaska, Statele Unite ale Americii

Latitudine: 61-10-28N, longitudine: 149-59-46W, elevație: 44 m

Observații meteo curente

Raportul a fost făcut în urmă cu 22 de minute, la 15:53 UTC
Vânt 4 kt de la Nord
Temperatură 2°C
Umiditate 55%
Presiune 1014 hPa
Vizibilitate: 16.1 km
Nori puțini la o înălțime de 14000 picior
Nori împrăștiați la o înălțime de 22000 picior

METAR: PANC 201553Z 36004KT 10SM FEW140 SCT220 02/M06 A2994 RMK AO2 SLP142 T00221056

Ora: 08:15 (16:15 UTC)

Prognoză

Raportul a fost făcut în urmă cu 4 ore și 52 de minute, la 11:23 UTC
Prognoză valabilă de la 20 ora 12 UTC la 21 ora 18 UTC
Vânt 6 kt de la Nord/Nord-vest
Vizibilitate: 10 km
Nori împrăștiați la o înălțime de 13000 picior
Nori fragmentați la o înălțime de 20000 picior

TAF: PANC 201123Z 2012/2118 33006KT P6SM SCT130 BKN200

Observații și prognoze meteo pentru peste 4.000 de aeroporturi (rapoarte METAR și TAF).

Stațiile disponibile sunt reprezentate pe hartă prin puncte galbene și roșii.

Țineți indicatorul mouse-ului pe punctul dorit pentru a vedea denumirea stației.

Apoi, faceți clic pentru a vedea observațiile și prognozele meteorologice.

Pentru a schimba harta: Pentru mărire, faceți clic pe butoanele verzi cu cruce neagră; pentru micșorare, pe butonul verde cu o liniuță; pentru hărți învecinate, pe săgețile verzi.


METAR-TAF: